Albenga, Italy

1:03 AM CEST on September 21, 2014 (GMT +0200)
Andora - colla micheri | Change Station
CLOSE
Current Station
Personal Weather Station
Location: Andora,
Elevation: 577 ft
Nearby Weather Stations

Elev 577 ft 43.97 °N, 8.15 °E | Updated 3 minutes ago

Scattered Clouds
Scattered Clouds
69.1 °F
Feels Like 69.1 °F
N
0.0
Wind Variable Wind from SSW
Gusts 0.0 mph

Today
High -- | Low -- °F
--% Chance of Precip.
Yesterday
High -- | Low -- °F
Precip. -- in
7:13 AM 7:27 PM
Waning Crescent, 10% visible
Pressure 30.01 in
Visibility 6.2 miles
Clouds Scattered Clouds 2500 ft
Dew Point 65 °F
Humidity 88%
Rainfall 0.00 in
Snow Depth Not available.
UV 0 out of 12
Pollen Not available.
Air Quality Not available.
Flu Activity Not available.
METAR LIMU 202155Z 03006KT 9999 SCT025 21/19 Q1016 RMK BKN SCT060 QUK / QUL / VIS MAR 20 KM VIS MIN 9999

More Conditions Fewer Conditions

Pressure 30.01 in
Visibility 6.2 miles
Clouds Scattered Clouds 2500 ft
Dew Point 65 °F
Humidity 88%
Rainfall 0.00 in
Snow Depth Not available.
UV 0 out of 12
Pollen Not available.
Air Quality Not available.
Flu Activity Not available.
METAR LIMU 202155Z 03006KT 9999 SCT025 21/19 Q1016 RMK BKN SCT060 QUK / QUL / VIS MAR 20 KM VIS MIN 9999

More Conditions Fewer Conditions

10-Day Weather Forecast

Almanac

Astronomy

Sep. 21, 2014 Rise Set
Actual Time 7:13 AM CEST 7:27 PM CEST
Civil Twilight 6:44 AM CEST 7:56 PM CEST
Nautical Twilight 6:10 AM CEST 8:29 PM CEST
Astronomical Twilight 5:35 AM CEST 9:04 PM CEST
Moon 4:27 AM CEST (9/21) 5:58 PM CEST (9/21)
Length of Visible Light 13h 11m
Length of Day
12h 14m
Tomorrow will be 3m 1s shorter.
Waning Crescent, 10% of the Moon is Illuminated
Sep 20
Waning Crescent
Sep 24
New
Oct 1
First Quarter
Oct 8
Full
Oct 15
Last Quarter

Yesterday's Extremes

Country Highs Country Lows

Community

WunderPhotos

Upload Photos

1,754,972 photos uploaded!

WunderBlogs® & News

Nearby

Snow Depth

Not available.

Earthquake Activity

City Distance Mag. Time & Date
No recent earthquake activity has been reported nearby.
Minimum magnitude displayed is 2.5.

Coastal Water Temperatures

Place Temperature
No Stations Reporting

Nearby Weather Stations